Lons-Le-Saunier, France

1:26 PM CEST on March 31, 2015 (GMT +0200)
Baresia sur l'Ain | | Change Station
CLOSE
Current Station
Personal Weather Station
Location: Baresia Sur L'Ain, JURA
Elevation: 1608 ft
Nearby Weather Stations

Elev 1608 ft 46.55 °N, 5.71 °E | Updated 14 seconds ago

Mostly Cloudy
Mostly Cloudy
52.2 °F
Feels Like 52.2 °F
N
7.0
Wind Variable Wind from SE
Gusts 10.0 mph

Today
High -- | Low -- °F
--% Chance of Precip.
Yesterday
High -- | Low -- °F
Precip. -- in
7:20 AM 8:04 PM
Waxing Gibbous, 86% visible
Pressure 30.06 in
Visibility 6.2 miles
Clouds Scattered Clouds 3500 ft
Mostly Cloudy 4500 ft
Dew Point 48 °F
Humidity 85%
Rainfall 0.05 in
Snow Depth Not available.
UV 4 out of 12
Pollen Not available.
Air Quality Not available.
Flu Activity Not available.
METAR LSGG 311120Z 22019KT 9999 SCT035 BKN045 15/08 Q1018 NOSIG

More Conditions Fewer Conditions

Pressure 30.06 in
Visibility 6.2 miles
Clouds Scattered Clouds 3500 ft
Mostly Cloudy 4500 ft
Dew Point 48 °F
Humidity 85%
Rainfall 0.05 in
Snow Depth Not available.
UV 4 out of 12
Pollen Not available.
Air Quality Not available.
Flu Activity Not available.
METAR LSGG 311120Z 22019KT 9999 SCT035 BKN045 15/08 Q1018 NOSIG

More Conditions Fewer Conditions

10-Day Weather Forecast

Almanac

Astronomy

Mar. 31, 2015 Rise Set
Actual Time
Civil Twilight
Nautical Twilight
Astronomical Twilight
Moon
Length of Visible Light
Length of Day
Tomorrow will be .
, % of the Moon is Illuminated

Today's Extremes

Country Highs Country Lows

Community

WunderPhotos

Upload Photos

1,809,743 photos uploaded!

WunderBlogs® & News

Nearby

Air Quality

  Air Quality AQ Index Pollutant
Not available.

Snow Depth

Station Depth Elevation

Earthquake Activity

City Distance Mag. Time & Date
Minimum magnitude displayed is 2.5.

Coastal Water Temperatures

Place Temperature

Stations

Nearby Weather Stations

Station Location Temp. Windchill Dew Point Humidity Wind Precip. Elev Updated Type